Kenosha Regional Airport
KENW : now visible

Airfield :











YOU CAN JOIN US ON...

 
LOGIN :

Register | Disclaimer

   EN    FR    IT 

 









Legend :    VFR   Marginal VFR   IFR   Intensive IFR   Very Intensive IFR
Visi :
Ceiling :
>= 8 km
>= 3000ft
5 to 8 km
1000 to 3000 ft
1500m to 5 km
500 to 1000 ft
800 to 1500m
200 to 500 ft
< 800m
< 200 ft
Symbols :   Thunderstorms  Fog  Heavy snow  Heavy precipitations  Wind > 20 kt







- Airport Elevation : 742 ft


KENW - Kenosha Regional

CURRENT METAR :
  • 201953Z 11008KT 10SM CLR 27/21 A3009 RMK AO2 SLP185 T02720211

EXPIRED METARs :
  • 201853Z 11006KT 10SM CLR 28/22 A3011 RMK AO2 SLP191 T02780217
  • 201753Z 11005KT 10SM CLR 27/21 A3012 RMK AO2 SLP196 T02720211 10272 20172 57009

TAF KENW
Valid from the 20 at 18:00 until the 21 at 18:00 UTC


201725Z 2018/2118 12005KT P6SM SCT180 BKN250
FM210300 VRB03KT P6SM SCT250
FM211100 19005KT 6SM BR SCT250
FM211400 20009KT P6SM SCT120
FM211500 20011G19KT P6SM SCT120
FM211600 19012G22KT P6SM BKN090
No reported NOTAMs for that airfield.



MET'MAP, your aeronautical weather chart ! - Copyright ORBIFLY December 2007 - Disclaimer

ORBIFLY MET'MAP TEAM :

Programming & Development : Alexandra Zaïnal
Concept & Development : Baudouin d'Aumeries
Co-Development & Prog : Marc-Olivier Méhu
Technical & hardware support : Manuel Goepfert

Contact : metmap@orbifly.com




SOURCES & CREDITS :

   NOAA       Earth
Advisory